sensor_id;sensor_type;location;lat;lon;timestamp;temperature;humidity
21672;DHT22;10997;52.242;8.168;2023-07-31T00:03:15;15.90;99.90
21672;DHT22;10997;52.242;8.168;2023-07-31T00:08:16;15.90;99.90
21672;DHT22;10997;52.242;8.168;2023-07-31T00:13:17;15.80;99.90
21672;DHT22;10997;52.242;8.168;2023-07-31T00:18:17;15.80;99.90
21672;DHT22;10997;52.242;8.168;2023-07-31T00:23:18;15.80;99.90
21672;DHT22;10997;52.242;8.168;2023-07-31T00:28:18;15.80;99.90
21672;DHT22;10997;52.242;8.168;2023-07-31T00:33:19;15.80;99.90
21672;DHT22;10997;52.242;8.168;2023-07-31T00:38:19;15.70;99.90
21672;DHT22;10997;52.242;8.168;2023-07-31T00:43:20;15.70;99.90
21672;DHT22;10997;52.242;8.168;2023-07-31T00:48:21;15.70;99.90
21672;DHT22;10997;52.242;8.168;2023-07-31T00:53:21;15.80;99.90
21672;DHT22;10997;52.242;8.168;2023-07-31T00:58:22;15.70;99.90
21672;DHT22;10997;52.242;8.168;2023-07-31T01:03:23;15.60;99.90
21672;DHT22;10997;52.242;8.168;2023-07-31T01:08:36;15.60;99.90
21672;DHT22;10997;52.242;8.168;2023-07-31T01:13:38;15.60;99.90
21672;DHT22;10997;52.242;8.168;2023-07-31T01:18:38;15.50;99.90
21672;DHT22;10997;52.242;8.168;2023-07-31T01:23:57;15.50;99.90
21672;DHT22;10997;52.242;8.168;2023-07-31T01:34:14;15.40;99.90
21672;DHT22;10997;52.242;8.168;2023-07-31T01:39:16;15.40;99.90
21672;DHT22;10997;52.242;8.168;2023-07-31T01:44:16;15.40;99.90
21672;DHT22;10997;52.242;8.168;2023-07-31T01:49:17;15.40;99.90
21672;DHT22;10997;52.242;8.168;2023-07-31T01:54:18;15.40;99.90
21672;DHT22;10997;52.242;8.168;2023-07-31T01:59:19;15.40;99.90
21672;DHT22;10997;52.242;8.168;2023-07-31T02:04:20;15.40;99.90
21672;DHT22;10997;52.242;8.168;2023-07-31T02:09:20;15.40;99.90
21672;DHT22;10997;52.242;8.168;2023-07-31T02:14:21;15.30;99.90
21672;DHT22;10997;52.242;8.168;2023-07-31T02:19:21;15.20;99.90
21672;DHT22;10997;52.242;8.168;2023-07-31T02:24:22;15.30;99.90
21672;DHT22;10997;52.242;8.168;2023-07-31T02:29:23;15.30;99.90
21672;DHT22;10997;52.242;8.168;2023-07-31T02:34:23;15.20;99.90
21672;DHT22;10997;52.242;8.168;2023-07-31T02:39:24;15.20;99.90
21672;DHT22;10997;52.242;8.168;2023-07-31T02:44:25;15.10;99.90
21672;DHT22;10997;52.242;8.168;2023-07-31T02:49:27;15.10;99.90
21672;DHT22;10997;52.242;8.168;2023-07-31T02:54:27;15.10;99.90
21672;DHT22;10997;52.242;8.168;2023-07-31T02:59:28;15.00;99.90
21672;DHT22;10997;52.242;8.168;2023-07-31T03:04:28;15.10;99.90
21672;DHT22;10997;52.242;8.168;2023-07-31T03:09:29;15.00;99.90
21672;DHT22;10997;52.242;8.168;2023-07-31T03:14:30;15.10;99.90
21672;DHT22;10997;52.242;8.168;2023-07-31T03:19:31;15.10;99.90
21672;DHT22;10997;52.242;8.168;2023-07-31T03:24:32;15.10;99.90
21672;DHT22;10997;52.242;8.168;2023-07-31T03:29:33;15.10;99.90
21672;DHT22;10997;52.242;8.168;2023-07-31T03:34:33;15.10;99.90
21672;DHT22;10997;52.242;8.168;2023-07-31T03:39:34;15.10;99.90
21672;DHT22;10997;52.242;8.168;2023-07-31T03:44:35;15.10;99.90
21672;DHT22;10997;52.242;8.168;2023-07-31T03:49:35;15.20;99.90
21672;DHT22;10997;52.242;8.168;2023-07-31T03:54:36;15.30;99.90
21672;DHT22;10997;52.242;8.168;2023-07-31T03:59:38;15.40;99.90
21672;DHT22;10997;52.242;8.168;2023-07-31T04:04:39;15.40;99.90
21672;DHT22;10997;52.242;8.168;2023-07-31T04:09:40;15.50;99.90
21672;DHT22;10997;52.242;8.168;2023-07-31T04:14:40;15.60;99.90
21672;DHT22;10997;52.242;8.168;2023-07-31T04:19:41;15.60;99.90
21672;DHT22;10997;52.242;8.168;2023-07-31T04:24:41;15.70;99.90
21672;DHT22;10997;52.242;8.168;2023-07-31T04:29:42;15.70;99.90
21672;DHT22;10997;52.242;8.168;2023-07-31T04:34:44;15.70;99.90
21672;DHT22;10997;52.242;8.168;2023-07-31T04:39:45;15.80;99.90
21672;DHT22;10997;52.242;8.168;2023-07-31T04:44:46;15.70;99.90
21672;DHT22;10997;52.242;8.168;2023-07-31T04:49:47;15.70;99.90
21672;DHT22;10997;52.242;8.168;2023-07-31T04:54:47;15.70;99.90
21672;DHT22;10997;52.242;8.168;2023-07-31T04:59:48;15.70;99.90
21672;DHT22;10997;52.242;8.168;2023-07-31T05:04:48;15.70;99.90
21672;DHT22;10997;52.242;8.168;2023-07-31T05:09:49;15.60;99.90
21672;DHT22;10997;52.242;8.168;2023-07-31T05:14:49;15.60;99.90
21672;DHT22;10997;52.242;8.168;2023-07-31T05:19:50;15.60;99.90
21672;DHT22;10997;52.242;8.168;2023-07-31T05:24:50;15.60;99.90
21672;DHT22;10997;52.242;8.168;2023-07-31T05:29:51;15.60;99.90
21672;DHT22;10997;52.242;8.168;2023-07-31T05:34:52;15.60;99.90
21672;DHT22;10997;52.242;8.168;2023-07-31T05:39:53;15.50;99.90
21672;DHT22;10997;52.242;8.168;2023-07-31T05:44:54;15.60;99.90
21672;DHT22;10997;52.242;8.168;2023-07-31T05:49:54;15.50;99.90
21672;DHT22;10997;52.242;8.168;2023-07-31T05:54:55;15.60;99.90
21672;DHT22;10997;52.242;8.168;2023-07-31T05:59:56;15.60;99.90
21672;DHT22;10997;52.242;8.168;2023-07-31T06:04:56;15.70;99.90
21672;DHT22;10997;52.242;8.168;2023-07-31T06:09:57;15.70;99.90
21672;DHT22;10997;52.242;8.168;2023-07-31T06:15:03;15.70;99.90
21672;DHT22;10997;52.242;8.168;2023-07-31T06:20:06;15.80;99.90
21672;DHT22;10997;52.242;8.168;2023-07-31T06:25:07;15.70;99.90
21672;DHT22;10997;52.242;8.168;2023-07-31T06:30:08;15.70;99.90
21672;DHT22;10997;52.242;8.168;2023-07-31T06:35:09;15.60;99.90
21672;DHT22;10997;52.242;8.168;2023-07-31T06:40:10;15.60;99.90
21672;DHT22;10997;52.242;8.168;2023-07-31T06:45:10;15.70;99.90
21672;DHT22;10997;52.242;8.168;2023-07-31T06:50:11;15.80;99.90
21672;DHT22;10997;52.242;8.168;2023-07-31T06:55:20;16.00;99.90
21672;DHT22;10997;52.242;8.168;2023-07-31T07:00:22;16.10;99.90
21672;DHT22;10997;52.242;8.168;2023-07-31T07:05:22;16.10;99.90
21672;DHT22;10997;52.242;8.168;2023-07-31T07:10:23;16.30;99.90
21672;DHT22;10997;52.242;8.168;2023-07-31T07:15:24;16.30;99.90
21672;DHT22;10997;52.242;8.168;2023-07-31T07:20:24;16.40;99.90
21672;DHT22;10997;52.242;8.168;2023-07-31T07:25:25;16.40;99.90
21672;DHT22;10997;52.242;8.168;2023-07-31T07:30:26;16.50;99.90
21672;DHT22;10997;52.242;8.168;2023-07-31T07:35:26;16.40;99.90
21672;DHT22;10997;52.242;8.168;2023-07-31T07:40:27;16.30;99.90
21672;DHT22;10997;52.242;8.168;2023-07-31T07:45:27;16.30;99.90
21672;DHT22;10997;52.242;8.168;2023-07-31T07:50:28;16.20;99.90
21672;DHT22;10997;52.242;8.168;2023-07-31T07:55:29;16.20;99.90
21672;DHT22;10997;52.242;8.168;2023-07-31T08:00:29;16.10;99.90
21672;DHT22;10997;52.242;8.168;2023-07-31T08:05:30;16.20;99.90
21672;DHT22;10997;52.242;8.168;2023-07-31T08:10:34;16.30;99.90
21672;DHT22;10997;52.242;8.168;2023-07-31T08:15:35;16.50;99.90
21672;DHT22;10997;52.242;8.168;2023-07-31T08:20:35;16.60;99.90
21672;DHT22;10997;52.242;8.168;2023-07-31T08:25:36;16.70;99.90
21672;DHT22;10997;52.242;8.168;2023-07-31T08:30:36;16.70;99.90
21672;DHT22;10997;52.242;8.168;2023-07-31T08:35:37;17.00;99.90
21672;DHT22;10997;52.242;8.168;2023-07-31T08:40:38;17.30;99.90
21672;DHT22;10997;52.242;8.168;2023-07-31T08:45:41;17.50;99.90
21672;DHT22;10997;52.242;8.168;2023-07-31T08:50:42;17.80;99.90
21672;DHT22;10997;52.242;8.168;2023-07-31T08:55:43;18.00;99.90
21672;DHT22;10997;52.242;8.168;2023-07-31T09:00:46;17.90;99.90
21672;DHT22;10997;52.242;8.168;2023-07-31T09:05:47;17.80;99.90
21672;DHT22;10997;52.242;8.168;2023-07-31T09:10:48;17.80;99.90
21672;DHT22;10997;52.242;8.168;2023-07-31T09:15:50;17.70;99.90
21672;DHT22;10997;52.242;8.168;2023-07-31T09:21:04;17.80;99.90
21672;DHT22;10997;52.242;8.168;2023-07-31T09:26:05;17.80;99.90
21672;DHT22;10997;52.242;8.168;2023-07-31T09:31:05;17.70;99.90
21672;DHT22;10997;52.242;8.168;2023-07-31T09:36:06;17.80;99.90
21672;DHT22;10997;52.242;8.168;2023-07-31T09:41:06;17.80;99.90
21672;DHT22;10997;52.242;8.168;2023-07-31T09:46:13;17.80;99.90
21672;DHT22;10997;52.242;8.168;2023-07-31T09:51:14;17.70;99.90
21672;DHT22;10997;52.242;8.168;2023-07-31T09:56:15;17.90;99.90
21672;DHT22;10997;52.242;8.168;2023-07-31T10:01:16;17.90;99.90
21672;DHT22;10997;52.242;8.168;2023-07-31T10:06:17;17.80;99.90
21672;DHT22;10997;52.242;8.168;2023-07-31T10:11:21;17.80;99.90
21672;DHT22;10997;52.242;8.168;2023-07-31T10:16:22;17.80;99.90
21672;DHT22;10997;52.242;8.168;2023-07-31T10:21:23;17.80;99.90
21672;DHT22;10997;52.242;8.168;2023-07-31T10:26:25;17.70;99.90
21672;DHT22;10997;52.242;8.168;2023-07-31T10:31:29;17.50;99.90
21672;DHT22;10997;52.242;8.168;2023-07-31T10:36:30;17.60;99.90
21672;DHT22;10997;52.242;8.168;2023-07-31T10:41:31;17.80;99.90
21672;DHT22;10997;52.242;8.168;2023-07-31T10:46:32;17.70;99.90
21672;DHT22;10997;52.242;8.168;2023-07-31T10:51:34;17.80;99.90
21672;DHT22;10997;52.242;8.168;2023-07-31T10:56:37;17.90;99.90
21672;DHT22;10997;52.242;8.168;2023-07-31T11:02:05;17.60;99.90
21672;DHT22;10997;52.242;8.168;2023-07-31T11:07:23;17.50;99.90
21672;DHT22;10997;52.242;8.168;2023-07-31T11:12:24;17.40;99.90
21672;DHT22;10997;52.242;8.168;2023-07-31T11:17:26;17.60;99.90
21672;DHT22;10997;52.242;8.168;2023-07-31T11:22:27;17.60;99.90
21672;DHT22;10997;52.242;8.168;2023-07-31T11:27:28;17.50;99.90
21672;DHT22;10997;52.242;8.168;2023-07-31T11:32:29;17.40;99.90
21672;DHT22;10997;52.242;8.168;2023-07-31T11:37:42;17.60;99.90
21672;DHT22;10997;52.242;8.168;2023-07-31T11:42:43;17.80;99.90
21672;DHT22;10997;52.242;8.168;2023-07-31T11:47:44;17.70;99.90
21672;DHT22;10997;52.242;8.168;2023-07-31T11:52:48;17.60;99.90
21672;DHT22;10997;52.242;8.168;2023-07-31T11:57:50;17.50;99.90
21672;DHT22;10997;52.242;8.168;2023-07-31T12:02:52;17.60;99.90
21672;DHT22;10997;52.242;8.168;2023-07-31T12:07:54;17.60;99.90
21672;DHT22;10997;52.242;8.168;2023-07-31T12:13:03;17.70;99.90
21672;DHT22;10997;52.242;8.168;2023-07-31T12:18:06;17.90;99.90
21672;DHT22;10997;52.242;8.168;2023-07-31T12:23:12;18.00;99.90
21672;DHT22;10997;52.242;8.168;2023-07-31T12:28:12;18.00;99.90
21672;DHT22;10997;52.242;8.168;2023-07-31T12:33:14;17.90;99.90
21672;DHT22;10997;52.242;8.168;2023-07-31T12:38:15;18.00;99.90
21672;DHT22;10997;52.242;8.168;2023-07-31T12:43:16;18.10;99.90
21672;DHT22;10997;52.242;8.168;2023-07-31T12:48:17;18.10;99.90
21672;DHT22;10997;52.242;8.168;2023-07-31T12:53:17;18.10;99.90
21672;DHT22;10997;52.242;8.168;2023-07-31T12:58:18;18.10;99.90
21672;DHT22;10997;52.242;8.168;2023-07-31T13:03:18;18.00;99.90
21672;DHT22;10997;52.242;8.168;2023-07-31T13:08:19;18.20;99.90
21672;DHT22;10997;52.242;8.168;2023-07-31T13:13:20;18.20;99.90
21672;DHT22;10997;52.242;8.168;2023-07-31T13:18:21;18.40;99.90
21672;DHT22;10997;52.242;8.168;2023-07-31T13:23:22;18.60;99.90
21672;DHT22;10997;52.242;8.168;2023-07-31T13:28:22;18.80;99.90
21672;DHT22;10997;52.242;8.168;2023-07-31T13:33:23;19.00;99.90
21672;DHT22;10997;52.242;8.168;2023-07-31T13:38:24;19.10;99.90
21672;DHT22;10997;52.242;8.168;2023-07-31T13:43:24;19.30;99.90
21672;DHT22;10997;52.242;8.168;2023-07-31T13:48:25;19.20;99.90
21672;DHT22;10997;52.242;8.168;2023-07-31T13:53:25;19.20;99.90
21672;DHT22;10997;52.242;8.168;2023-07-31T13:58:26;19.10;99.90
21672;DHT22;10997;52.242;8.168;2023-07-31T14:03:26;19.10;99.90
21672;DHT22;10997;52.242;8.168;2023-07-31T14:08:27;19.10;99.90
21672;DHT22;10997;52.242;8.168;2023-07-31T14:13:27;18.90;99.90
21672;DHT22;10997;52.242;8.168;2023-07-31T14:18:28;18.70;99.90
21672;DHT22;10997;52.242;8.168;2023-07-31T14:23:29;18.60;99.90
21672;DHT22;10997;52.242;8.168;2023-07-31T14:28:29;18.50;99.90
21672;DHT22;10997;52.242;8.168;2023-07-31T14:33:30;18.70;99.90
21672;DHT22;10997;52.242;8.168;2023-07-31T14:38:30;18.90;99.90
21672;DHT22;10997;52.242;8.168;2023-07-31T14:43:31;19.10;99.90
21672;DHT22;10997;52.242;8.168;2023-07-31T14:48:32;19.20;99.90
21672;DHT22;10997;52.242;8.168;2023-07-31T14:53:32;19.50;99.90
21672;DHT22;10997;52.242;8.168;2023-07-31T14:58:33;19.80;99.90
21672;DHT22;10997;52.242;8.168;2023-07-31T15:03:33;19.70;99.90
21672;DHT22;10997;52.242;8.168;2023-07-31T15:08:34;19.50;99.90
21672;DHT22;10997;52.242;8.168;2023-07-31T15:13:36;19.40;99.90
21672;DHT22;10997;52.242;8.168;2023-07-31T15:18:37;19.50;99.90
21672;DHT22;10997;52.242;8.168;2023-07-31T15:23:37;19.40;99.90
21672;DHT22;10997;52.242;8.168;2023-07-31T15:28:39;19.30;99.90
21672;DHT22;10997;52.242;8.168;2023-07-31T15:33:39;19.20;99.90
21672;DHT22;10997;52.242;8.168;2023-07-31T15:38:40;19.20;99.90
21672;DHT22;10997;52.242;8.168;2023-07-31T15:43:40;19.30;99.90
21672;DHT22;10997;52.242;8.168;2023-07-31T15:48:41;19.10;99.90
21672;DHT22;10997;52.242;8.168;2023-07-31T15:53:42;19.10;99.90
21672;DHT22;10997;52.242;8.168;2023-07-31T15:58:42;19.00;99.90
21672;DHT22;10997;52.242;8.168;2023-07-31T16:03:43;18.90;99.90
21672;DHT22;10997;52.242;8.168;2023-07-31T16:08:43;18.80;99.90
21672;DHT22;10997;52.242;8.168;2023-07-31T16:13:44;18.70;99.90
21672;DHT22;10997;52.242;8.168;2023-07-31T16:18:45;18.60;99.90
21672;DHT22;10997;52.242;8.168;2023-07-31T16:23:45;18.40;99.90
21672;DHT22;10997;52.242;8.168;2023-07-31T16:28:46;18.40;99.90
21672;DHT22;10997;52.242;8.168;2023-07-31T16:33:47;18.30;99.90
21672;DHT22;10997;52.242;8.168;2023-07-31T16:38:47;18.20;99.90
21672;DHT22;10997;52.242;8.168;2023-07-31T16:43:49;18.20;99.90
21672;DHT22;10997;52.242;8.168;2023-07-31T16:48:49;18.10;99.90
21672;DHT22;10997;52.242;8.168;2023-07-31T16:53:50;18.10;99.90
21672;DHT22;10997;52.242;8.168;2023-07-31T16:58:50;18.10;99.90
21672;DHT22;10997;52.242;8.168;2023-07-31T17:03:51;18.00;99.90
21672;DHT22;10997;52.242;8.168;2023-07-31T17:08:52;18.00;99.90
21672;DHT22;10997;52.242;8.168;2023-07-31T17:13:52;17.90;99.90
21672;DHT22;10997;52.242;8.168;2023-07-31T17:18:53;17.70;99.90
21672;DHT22;10997;52.242;8.168;2023-07-31T17:23:54;17.80;99.90
21672;DHT22;10997;52.242;8.168;2023-07-31T17:28:55;17.70;99.90
21672;DHT22;10997;52.242;8.168;2023-07-31T17:33:55;17.70;99.90
21672;DHT22;10997;52.242;8.168;2023-07-31T17:38:56;17.60;99.90
21672;DHT22;10997;52.242;8.168;2023-07-31T17:43:56;17.60;99.90
21672;DHT22;10997;52.242;8.168;2023-07-31T17:48:57;17.60;99.90
21672;DHT22;10997;52.242;8.168;2023-07-31T17:53:59;17.60;99.90
21672;DHT22;10997;52.242;8.168;2023-07-31T17:59:00;17.50;99.90
21672;DHT22;10997;52.242;8.168;2023-07-31T18:04:01;17.50;99.90
21672;DHT22;10997;52.242;8.168;2023-07-31T18:09:02;17.50;99.90
21672;DHT22;10997;52.242;8.168;2023-07-31T18:14:02;17.40;99.90
21672;DHT22;10997;52.242;8.168;2023-07-31T18:19:03;17.40;99.90
21672;DHT22;10997;52.242;8.168;2023-07-31T18:24:04;17.40;99.90
21672;DHT22;10997;52.242;8.168;2023-07-31T18:29:05;17.30;99.90
21672;DHT22;10997;52.242;8.168;2023-07-31T18:34:05;17.30;99.90
21672;DHT22;10997;52.242;8.168;2023-07-31T18:39:06;17.30;99.90
21672;DHT22;10997;52.242;8.168;2023-07-31T18:44:07;17.20;99.90
21672;DHT22;10997;52.242;8.168;2023-07-31T18:49:08;17.10;99.90
21672;DHT22;10997;52.242;8.168;2023-07-31T18:54:08;17.10;99.90
21672;DHT22;10997;52.242;8.168;2023-07-31T18:59:09;17.10;99.90
21672;DHT22;10997;52.242;8.168;2023-07-31T19:04:10;17.10;99.90
21672;DHT22;10997;52.242;8.168;2023-07-31T19:09:11;17.00;99.90
21672;DHT22;10997;52.242;8.168;2023-07-31T19:14:12;17.00;99.90
21672;DHT22;10997;52.242;8.168;2023-07-31T19:19:13;17.00;99.90
21672;DHT22;10997;52.242;8.168;2023-07-31T19:24:15;17.00;99.90
21672;DHT22;10997;52.242;8.168;2023-07-31T19:29:15;17.00;99.90
21672;DHT22;10997;52.242;8.168;2023-07-31T19:34:16;17.00;99.90
21672;DHT22;10997;52.242;8.168;2023-07-31T19:39:17;16.90;99.90
21672;DHT22;10997;52.242;8.168;2023-07-31T19:44:17;16.90;99.90
21672;DHT22;10997;52.242;8.168;2023-07-31T19:49:18;16.90;99.90
21672;DHT22;10997;52.242;8.168;2023-07-31T19:54:19;16.90;99.90
21672;DHT22;10997;52.242;8.168;2023-07-31T19:59:20;16.90;99.90
21672;DHT22;10997;52.242;8.168;2023-07-31T20:04:20;16.90;99.90
21672;DHT22;10997;52.242;8.168;2023-07-31T20:09:21;16.80;99.90
21672;DHT22;10997;52.242;8.168;2023-07-31T20:14:21;16.80;99.90
21672;DHT22;10997;52.242;8.168;2023-07-31T20:19:22;16.80;99.90
21672;DHT22;10997;52.242;8.168;2023-07-31T20:24:23;16.80;99.90
21672;DHT22;10997;52.242;8.168;2023-07-31T20:29:23;16.90;99.90
21672;DHT22;10997;52.242;8.168;2023-07-31T20:34:24;16.80;99.90
21672;DHT22;10997;52.242;8.168;2023-07-31T20:39:24;16.80;99.90
21672;DHT22;10997;52.242;8.168;2023-07-31T20:44:25;16.80;99.90
21672;DHT22;10997;52.242;8.168;2023-07-31T20:49:26;16.80;99.90
21672;DHT22;10997;52.242;8.168;2023-07-31T20:54:26;16.80;99.90
21672;DHT22;10997;52.242;8.168;2023-07-31T20:59:27;16.80;99.90
21672;DHT22;10997;52.242;8.168;2023-07-31T21:04:27;16.80;99.90
21672;DHT22;10997;52.242;8.168;2023-07-31T21:09:29;16.80;99.90
21672;DHT22;10997;52.242;8.168;2023-07-31T21:14:30;16.70;99.90
21672;DHT22;10997;52.242;8.168;2023-07-31T21:19:30;16.80;99.90
21672;DHT22;10997;52.242;8.168;2023-07-31T21:24:31;16.70;99.90
21672;DHT22;10997;52.242;8.168;2023-07-31T21:29:31;16.70;99.90
21672;DHT22;10997;52.242;8.168;2023-07-31T21:34:32;16.70;99.90
21672;DHT22;10997;52.242;8.168;2023-07-31T21:39:32;16.70;99.90
21672;DHT22;10997;52.242;8.168;2023-07-31T21:44:33;16.60;99.90
21672;DHT22;10997;52.242;8.168;2023-07-31T21:49:34;16.60;99.90
21672;DHT22;10997;52.242;8.168;2023-07-31T21:54:34;16.50;99.90
21672;DHT22;10997;52.242;8.168;2023-07-31T21:59:35;16.40;99.90
21672;DHT22;10997;52.242;8.168;2023-07-31T22:04:38;16.40;99.90
21672;DHT22;10997;52.242;8.168;2023-07-31T22:09:42;16.40;99.90
21672;DHT22;10997;52.242;8.168;2023-07-31T22:14:43;16.40;99.90
21672;DHT22;10997;52.242;8.168;2023-07-31T22:19:44;16.40;99.90
21672;DHT22;10997;52.242;8.168;2023-07-31T22:24:44;16.40;99.90
21672;DHT22;10997;52.242;8.168;2023-07-31T22:29:47;16.30;99.90
21672;DHT22;10997;52.242;8.168;2023-07-31T22:34:47;16.40;99.90
21672;DHT22;10997;52.242;8.168;2023-07-31T22:39:48;16.40;99.90
21672;DHT22;10997;52.242;8.168;2023-07-31T22:44:48;16.30;99.90
21672;DHT22;10997;52.242;8.168;2023-07-31T22:49:49;16.30;99.90
21672;DHT22;10997;52.242;8.168;2023-07-31T22:54:49;16.30;99.90
21672;DHT22;10997;52.242;8.168;2023-07-31T22:59:52;16.30;99.90
21672;DHT22;10997;52.242;8.168;2023-07-31T23:04:53;16.30;99.90
21672;DHT22;10997;52.242;8.168;2023-07-31T23:09:54;16.30;99.90
21672;DHT22;10997;52.242;8.168;2023-07-31T23:14:55;16.30;99.90
21672;DHT22;10997;52.242;8.168;2023-07-31T23:19:56;16.30;99.90
21672;DHT22;10997;52.242;8.168;2023-07-31T23:24:56;16.30;99.90
21672;DHT22;10997;52.242;8.168;2023-07-31T23:29:57;16.40;99.90
21672;DHT22;10997;52.242;8.168;2023-07-31T23:34:57;16.30;99.90
21672;DHT22;10997;52.242;8.168;2023-07-31T23:39:58;16.40;99.90
21672;DHT22;10997;52.242;8.168;2023-07-31T23:44:59;16.40;99.90
21672;DHT22;10997;52.242;8.168;2023-07-31T23:50:00;16.40;99.90
21672;DHT22;10997;52.242;8.168;2023-07-31T23:55:01;16.40;99.90
